Time;durP1;ratioP1;P1;durP2;ratioP2;P2;SDS_P1;SDS_P2;PMS_P1;PMS_P2;Temp;Humidity;BMP_temperature;BMP_pressure;BME280_temperature;BME280_humidity;BME280_pressure;Samples;Min_cycle;Max_cycle;Signal;HPM_P1;HPM_P2
2022/09/30 00:02:24;;;;;;;17.25;11.65;;;6.00;99.90;;;;;;5009418;28;20045;-75
2022/09/30 00:04:50;;;;;;;19.95;12.40;;;6.00;99.90;;;;;;5010930;28;20386;-75
2022/09/30 00:07:16;;;;;;;17.80;12.70;;;6.00;99.90;;;;;;5010570;28;20030;-75
2022/09/30 00:09:42;;;;;;;15.52;12.60;;;5.90;99.90;;;;;;5008297;28;20026;-74
2022/09/30 00:12:09;;;;;;;14.27;10.18;;;5.90;99.90;;;;;;5010774;28;20034;-74
2022/09/30 00:14:34;;;;;;;15.43;10.10;;;5.90;99.90;;;;;;5010336;28;20113;-75
2022/09/30 00:17:00;;;;;;;20.20;13.10;;;5.90;99.90;;;;;;5010980;28;20041;-74
2022/09/30 00:19:26;;;;;;;20.85;13.50;;;5.90;99.90;;;;;;5010554;28;20447;-75
2022/09/30 00:21:51;;;;;;;11.63;9.70;;;5.90;99.90;;;;;;5008763;28;20068;-75
2022/09/30 00:24:17;;;;;;;14.55;10.93;;;5.80;99.90;;;;;;5010817;28;20164;-75
2022/09/30 00:26:43;;;;;;;17.58;10.82;;;5.80;99.90;;;;;;5011250;28;20038;-75
2022/09/30 00:29:09;;;;;;;11.48;7.28;;;5.80;99.90;;;;;;5007452;28;20030;-75
2022/09/30 00:31:35;;;;;;;10.98;7.70;;;5.70;99.90;;;;;;5008144;28;20018;-74
2022/09/30 00:34:07;;;;;;;11.38;7.97;;;5.70;99.90;;;;;;5009007;28;20032;-75
2022/09/30 00:36:51;;;;;;;10.27;6.70;;;5.60;99.90;;;;;;5008728;28;20022;-75
2022/09/30 00:39:22;;;;;;;13.25;8.50;;;5.70;99.90;;;;;;5010001;28;20088;-75
2022/09/30 00:41:51;;;;;;;15.18;10.00;;;5.60;99.90;;;;;;5011084;28;20425;-75
2022/09/30 00:44:44;;;;;;;16.17;10.07;;;5.60;99.90;;;;;;5011027;28;20052;-74
2022/09/30 00:47:29;;;;;;;13.93;9.77;;;5.60;99.90;;;;;;4997965;28;20052;-75
2022/09/30 00:49:58;;;;;;;8.88;6.65;;;5.60;99.90;;;;;;5010437;28;20061;-74
2022/09/30 00:52:25;;;;;;;7.85;6.05;;;5.50;99.90;;;;;;5010670;28;20022;-75
2022/09/30 00:54:52;;;;;;;10.32;7.93;;;5.50;99.90;;;;;;5011269;28;20034;-74
2022/09/30 00:57:18;;;;;;;10.60;8.15;;;5.50;99.90;;;;;;5007337;28;20022;-75
2022/09/30 00:59:49;;;;;;;8.65;6.88;;;5.40;99.90;;;;;;5009727;28;20101;-74
2022/09/30 01:02:15;;;;;;;10.05;7.18;;;5.40;99.90;;;;;;5008635;28;20125;-75
2022/09/30 01:04:43;;;;;;;11.32;8.05;;;5.50;99.90;;;;;;5007904;28;20030;-75
2022/09/30 01:07:09;;;;;;;10.95;8.32;;;5.40;99.90;;;;;;5005410;28;20076;-75
2022/09/30 01:09:38;;;;;;;9.98;7.97;;;5.50;99.90;;;;;;5010770;28;20497;-74
2022/09/30 01:12:19;;;;;;;13.95;9.68;;;5.40;99.90;;;;;;5009104;28;20022;-75
2022/09/30 01:14:47;;;;;;;15.23;9.80;;;5.40;99.90;;;;;;5008112;28;20048;-74
2022/09/30 01:17:22;;;;;;;16.00;11.13;;;5.40;99.90;;;;;;5008350;28;20084;-75
2022/09/30 01:20:14;;;;;;;14.05;10.43;;;5.40;99.90;;;;;;5005790;28;20562;-74
2022/09/30 01:23:22;;;;;;;12.52;9.45;;;5.50;99.90;;;;;;5005168;28;20057;-74
2022/09/30 01:26:18;;;;;;;13.35;6.75;;;5.40;99.90;;;;;;5010518;28;20073;-75
2022/09/30 01:29:14;;;;;;;10.05;7.10;;;5.50;99.90;;;;;;5010208;28;20378;-75
2022/09/30 01:32:02;;;;;;;11.90;8.30;;;5.40;99.90;;;;;;5009107;28;20489;-75
2022/09/30 01:35:22;;;;;;;11.93;8.40;;;5.40;99.90;;;;;;4994471;28;20048;-74
2022/09/30 01:38:19;;;;;;;20.42;12.02;;;5.40;99.90;;;;;;5004513;28;20030;-74
2022/09/30 01:41:08;;;;;;;18.40;11.60;;;5.30;99.90;;;;;;5009534;28;20036;-74
2022/09/30 01:43:49;;;;;;;20.98;13.20;;;5.30;99.90;;;;;;5013819;28;20409;-74
2022/09/30 01:46:37;;;;;;;17.15;10.52;;;5.30;99.90;;;;;;5008595;28;20141;-75
2022/09/30 01:49:11;;;;;;;16.23;10.57;;;5.30;99.90;;;;;;5009682;28;20037;-74
2022/09/30 01:51:52;;;;;;;14.23;9.45;;;5.30;99.90;;;;;;5009430;28;20026;-75
2022/09/30 01:54:29;;;;;;;14.52;9.68;;;5.30;99.90;;;;;;5009681;28;20037;-74
2022/09/30 01:57:07;;;;;;;20.10;12.43;;;5.30;99.90;;;;;;5008699;28;20156;-74
2022/09/30 01:59:42;;;;;;;17.58;11.27;;;5.20;99.90;;;;;;5008373;28;20022;-74
2022/09/30 02:02:54;;;;;;;17.42;10.73;;;5.20;99.90;;;;;;5009559;28;20033;-74
2022/09/30 02:05:47;;;;;;;15.15;8.82;;;5.20;99.90;;;;;;5006184;28;20092;-75
2022/09/30 02:08:18;;;;;;;11.18;8.57;;;5.10;99.90;;;;;;5009804;28;20080;-74
2022/09/30 02:10:55;;;;;;;13.77;9.40;;;5.10;99.90;;;;;;5010417;28;20024;-74
2022/09/30 02:13:28;;;;;;;15.00;10.75;;;5.10;99.90;;;;;;5008187;28;20444;-74
2022/09/30 02:15:59;;;;;;;15.88;10.35;;;5.10;99.90;;;;;;5007029;28;20500;-74
2022/09/30 02:18:38;;;;;;;16.27;10.63;;;5.10;99.90;;;;;;5007180;28;20038;-75
2022/09/30 02:21:06;;;;;;;14.73;11.05;;;5.00;99.90;;;;;;5005518;28;20066;-75
2022/09/30 02:23:35;;;;;;;16.20;11.10;;;5.00;99.90;;;;;;5008446;28;20048;-74
2022/09/30 02:26:09;;;;;;;16.98;12.18;;;5.00;99.90;;;;;;5006888;28;20517;-75
2022/09/30 02:28:40;;;;;;;17.10;11.23;;;5.00;99.90;;;;;;5009289;28;20113;-74
2022/09/30 02:31:10;;;;;;;17.42;12.15;;;5.00;99.90;;;;;;5008332;28;20049;-74
2022/09/30 02:33:45;;;;;;;17.85;12.80;;;5.00;99.90;;;;;;5008502;28;21071;-75
2022/09/30 02:36:26;;;;;;;18.48;12.60;;;5.00;99.90;;;;;;5007151;28;20113;-75
2022/09/30 02:39:02;;;;;;;15.57;11.38;;;5.00;99.90;;;;;;5013889;28;20018;-74
2022/09/30 02:41:29;;;;;;;15.73;11.18;;;5.00;99.90;;;;;;5013176;28;20393;-74
2022/09/30 02:43:56;;;;;;;16.65;11.25;;;5.00;99.90;;;;;;5012724;28;20030;-75
2022/09/30 02:46:31;;;;;;;16.83;11.88;;;5.00;99.90;;;;;;5009719;28;20077;-74
2022/09/30 02:49:04;;;;;;;17.45;12.85;;;5.00;99.90;;;;;;5013441;28;20033;-75
2022/09/30 02:51:44;;;;;;;;;;;4.90;99.90;;;;;;5011376;28;20057;-74
2022/09/30 02:54:23;;;;;;;15.32;10.60;;;4.90;99.90;;;;;;5009029;28;20004;-74
2022/09/30 02:57:19;;;;;;;20.10;12.13;;;4.90;99.90;;;;;;5011916;28;20026;-74
2022/09/30 02:59:51;;;;;;;19.85;12.98;;;4.90;99.90;;;;;;5011606;28;20099;-74
2022/09/30 03:02:17;;;;;;;21.40;12.80;;;4.90;99.90;;;;;;5013596;28;20072;-75
2022/09/30 03:04:45;;;;;;;23.15;14.07;;;4.80;99.90;;;;;;5012004;28;20033;-75
2022/09/30 03:07:11;;;;;;;22.52;14.60;;;4.80;99.90;;;;;;5010623;28;20022;-74
2022/09/30 03:09:37;;;;;;;25.52;15.32;;;4.80;99.90;;;;;;5013550;28;20482;-75
2022/09/30 03:12:35;;;;;;;22.40;14.07;;;4.80;99.90;;;;;;5011980;28;20092;-74
2022/09/30 03:15:20;;;;;;;22.17;14.10;;;4.80;99.90;;;;;;5011751;28;20500;-74
2022/09/30 03:17:57;;;;;;;21.02;14.32;;;4.80;99.90;;;;;;5012353;28;20515;-75
2022/09/30 03:20:37;;;;;;;21.55;14.48;;;4.80;99.90;;;;;;5013260;28;20374;-74
2022/09/30 03:23:22;;;;;;;21.00;13.73;;;4.70;99.90;;;;;;5010245;28;20108;-74
2022/09/30 03:26:15;;;;;;;17.60;12.20;;;4.70;99.90;;;;;;5012425;28;20065;-75
2022/09/30 03:28:55;;;;;;;18.40;13.60;;;4.70;99.90;;;;;;4991215;28;20454;-75
2022/09/30 03:31:39;;;;;;;20.90;13.95;;;4.70;99.90;;;;;;5010780;28;20042;-74
2022/09/30 03:34:34;;;;;;;20.63;14.48;;;4.70;99.90;;;;;;5008426;28;20084;-75
2022/09/30 03:37:37;;;;;;;21.35;14.70;;;4.60;99.90;;;;;;5012697;28;20065;-74
2022/09/30 03:40:30;;;;;;;24.20;14.60;;;4.60;99.90;;;;;;5011701;28;20628;-74
2022/09/30 03:43:20;;;;;;;31.67;14.80;;;4.60;99.90;;;;;;5010918;28;20030;-74
2022/09/30 03:46:15;;;;;;;21.92;14.30;;;4.60;99.90;;;;;;5012271;28;20180;-74
2022/09/30 03:48:42;;;;;;;22.48;13.95;;;4.50;99.90;;;;;;5013185;28;20026;-74
2022/09/30 03:51:08;;;;;;;21.55;13.95;;;4.50;99.90;;;;;;5013147;28;20073;-74
2022/09/30 03:53:41;;;;;;;23.65;15.15;;;4.60;99.90;;;;;;5011785;28;20034;-74
2022/09/30 03:56:06;;;;;;;23.25;15.40;;;4.60;99.90;;;;;;5012111;28;20029;-74
2022/09/30 03:58:33;;;;;;;22.50;15.05;;;4.50;99.90;;;;;;5012694;28;20509;-74
2022/09/30 04:00:59;;;;;;;24.50;14.15;;;4.50;99.90;;;;;;5013095;28;20077;-74
2022/09/30 04:03:26;;;;;;;22.02;15.13;;;4.50;99.90;;;;;;5011475;28;20030;-74
2022/09/30 04:05:52;;;;;;;21.48;14.65;;;4.50;99.90;;;;;;5011926;28;20022;-75
2022/09/30 04:08:17;;;;;;;22.38;14.52;;;4.50;99.90;;;;;;5011322;28;20034;-75
2022/09/30 04:10:43;;;;;;;23.30;14.77;;;4.50;99.90;;;;;;5012398;28;20377;-74
2022/09/30 04:13:10;;;;;;;25.35;17.27;;;4.40;99.90;;;;;;5001129;28;20038;-73
2022/09/30 04:15:37;;;;;;;20.77;14.63;;;4.40;99.90;;;;;;5007128;28;20074;-73
2022/09/30 04:18:04;;;;;;;24.02;16.38;;;4.40;99.90;;;;;;5005247;28;20086;-73
2022/09/30 04:20:30;;;;;;;25.55;15.98;;;4.40;99.90;;;;;;5004956;28;20037;-74
2022/09/30 04:22:58;;;;;;;26.67;17.35;;;4.40;99.90;;;;;;5002910;28;20025;-74
2022/09/30 04:25:23;;;;;;;26.30;17.10;;;4.40;99.90;;;;;;5002132;28;20021;-74
2022/09/30 04:27:49;;;;;;;28.20;16.38;;;4.40;99.90;;;;;;5004656;28;20062;-74
2022/09/30 04:30:14;;;;;;;26.38;16.98;;;4.40;99.90;;;;;;5011010;28;20057;-75
2022/09/30 04:32:44;;;;;;;25.35;16.48;;;4.40;99.90;;;;;;5005561;28;20085;-74
2022/09/30 04:35:11;;;;;;;23.80;16.70;;;4.40;99.90;;;;;;5005872;28;20417;-74
2022/09/30 04:37:41;;;;;;;21.25;14.52;;;4.40;99.90;;;;;;5005555;28;20509;-74
2022/09/30 04:40:08;;;;;;;19.65;13.85;;;4.30;99.90;;;;;;5004638;28;20465;-76
2022/09/30 04:42:34;;;;;;;19.50;13.80;;;4.40;99.90;;;;;;5005266;28;20025;-74
2022/09/30 04:45:00;;;;;;;23.02;15.05;;;4.40;99.90;;;;;;5009121;28;20057;-74
2022/09/30 04:47:25;;;;;;;20.40;13.55;;;4.40;99.90;;;;;;5008201;28;20105;-74
2022/09/30 04:49:51;;;;;;;19.40;13.65;;;4.40;99.90;;;;;;5011749;28;20182;-74
2022/09/30 04:52:16;;;;;;;20.83;13.85;;;4.40;99.90;;;;;;5009922;28;20121;-75
2022/09/30 04:54:42;;;;;;;19.75;13.75;;;4.30;99.90;;;;;;5008843;28;20355;-74
2022/09/30 04:57:07;;;;;;;20.25;13.90;;;4.30;99.90;;;;;;5009747;28;20301;-74
2022/09/30 04:59:33;;;;;;;17.45;11.82;;;4.30;99.90;;;;;;5011153;28;20052;-74
2022/09/30 05:01:58;;;;;;;16.80;11.55;;;4.30;99.90;;;;;;5009749;28;20112;-74
2022/09/30 05:04:24;;;;;;;18.85;12.68;;;4.30;99.90;;;;;;5007440;28;20552;-75
2022/09/30 05:06:49;;;;;;;19.90;13.32;;;4.30;99.90;;;;;;5010692;28;20524;-74
2022/09/30 05:09:15;;;;;;;19.45;12.05;;;4.20;99.90;;;;;;5005814;28;20350;-74
2022/09/30 05:11:41;;;;;;;19.38;14.35;;;4.30;99.90;;;;;;5007775;28;20562;-74
2022/09/30 05:14:08;;;;;;;24.08;16.10;;;4.20;99.90;;;;;;5005449;28;20026;-74
2022/09/30 05:16:33;;;;;;;23.55;14.93;;;4.20;99.90;;;;;;5010805;28;20052;-74
2022/09/30 05:18:59;;;;;;;22.55;15.40;;;4.20;99.90;;;;;;5002945;28;20069;-74
2022/09/30 05:21:24;;;;;;;26.42;15.95;;;4.20;99.90;;;;;;5003576;28;20028;-74
2022/09/30 05:23:52;;;;;;;27.38;16.67;;;4.20;99.90;;;;;;5005255;28;20021;-75
2022/09/30 05:26:18;;;;;;;25.27;15.15;;;4.20;99.90;;;;;;5008478;28;20034;-75
2022/09/30 05:28:43;;;;;;;20.25;13.55;;;4.20;99.90;;;;;;5010197;28;20029;-75
2022/09/30 05:31:10;;;;;;;23.23;14.98;;;4.20;99.90;;;;;;5010565;28;20053;-75
2022/09/30 05:33:36;;;;;;;22.75;14.18;;;4.20;99.90;;;;;;5010748;28;20022;-75
2022/09/30 05:36:05;;;;;;;26.35;12.98;;;4.20;99.90;;;;;;5007804;28;20034;-75
2022/09/30 05:38:31;;;;;;;17.25;11.20;;;4.20;99.90;;;;;;5006608;28;20034;-74
2022/09/30 05:40:56;;;;;;;17.42;9.95;;;4.10;99.90;;;;;;5007597;28;20022;-74
2022/09/30 05:43:22;;;;;;;19.10;12.50;;;4.10;99.90;;;;;;5009548;28;20406;-74
2022/09/30 05:45:57;;;;;;;21.80;13.75;;;4.10;99.90;;;;;;5010008;28;20041;-73
2022/09/30 05:48:24;;;;;;;23.10;13.98;;;4.10;99.90;;;;;;5007292;28;20018;-74
2022/09/30 05:50:54;;;;;;;25.15;15.95;;;4.10;99.90;;;;;;5009896;28;20125;-74
2022/09/30 05:53:20;;;;;;;20.65;14.27;;;4.10;99.90;;;;;;4998133;28;20053;-74
2022/09/30 05:55:46;;;;;;;19.35;13.23;;;4.20;99.90;;;;;;5003584;28;20029;-74
2022/09/30 05:58:13;;;;;;;24.17;15.65;;;4.20;99.90;;;;;;5011719;28;20477;-74
2022/09/30 06:00:44;;;;;;;27.98;18.58;;;4.30;99.90;;;;;;5000401;28;20057;-74
2022/09/30 06:03:10;;;;;;;25.45;17.00;;;4.30;99.90;;;;;;5010573;28;20034;-74
2022/09/30 06:05:36;;;;;;;25.35;17.00;;;4.30;99.90;;;;;;5010033;28;20092;-74
2022/09/30 06:08:02;;;;;;;26.83;16.95;;;4.30;99.90;;;;;;5006015;28;20035;-74
2022/09/30 06:10:28;;;;;;;24.30;16.02;;;4.30;99.90;;;;;;5008866;28;20414;-74
2022/09/30 06:12:53;;;;;;;30.05;19.48;;;4.30;99.90;;;;;;5022301;28;20038;-74
2022/09/30 06:15:19;;;;;;;30.27;17.00;;;4.40;99.90;;;;;;5005491;28;20105;-74
2022/09/30 06:17:45;;;;;;;28.60;15.23;;;4.40;99.90;;;;;;5015811;28;20129;-75
2022/09/30 06:20:11;;;;;;;27.23;17.88;;;4.50;99.90;;;;;;5005133;28;20026;-75
2022/09/30 06:22:37;;;;;;;22.30;15.13;;;4.50;99.90;;;;;;5002167;28;20030;-75
2022/09/30 06:25:04;;;;;;;59.05;19.98;;;4.60;99.90;;;;;;5003799;28;20022;-76
2022/09/30 06:27:32;;;;;;;41.42;21.38;;;4.60;99.90;;;;;;5005829;28;20048;-73
2022/09/30 06:29:58;;;;;;;77.22;23.60;;;4.70;99.90;;;;;;5009726;28;20026;-73
2022/09/30 06:32:25;;;;;;;33.40;21.23;;;4.70;99.90;;;;;;5012625;28;20066;-72
2022/09/30 06:34:51;;;;;;;38.95;22.55;;;4.90;99.90;;;;;;5005347;28;20041;-72
2022/09/30 06:37:17;;;;;;;41.15;24.10;;;4.90;99.90;;;;;;5008330;28;20042;-72
2022/09/30 06:39:43;;;;;;;45.50;26.15;;;5.00;99.90;;;;;;5000999;28;20033;-72
2022/09/30 06:42:10;;;;;;;41.47;25.55;;;5.10;99.90;;;;;;5024565;28;20390;-72
2022/09/30 06:44:36;;;;;;;43.38;28.02;;;5.20;99.90;;;;;;5010630;28;20030;-72
2022/09/30 06:47:01;;;;;;;47.35;28.92;;;5.30;99.90;;;;;;5013734;28;20395;-72
2022/09/30 06:49:27;;;;;;;52.35;31.33;;;5.40;99.90;;;;;;5010240;28;20033;-72
2022/09/30 06:51:52;;;;;;;51.70;32.65;;;5.50;99.90;;;;;;5014159;28;20045;-73
2022/09/30 06:54:19;;;;;;;53.80;31.90;;;5.60;99.90;;;;;;5010499;28;20172;-72
2022/09/30 06:56:46;;;;;;;47.08;30.75;;;5.70;99.90;;;;;;5013550;28;20367;-72
2022/09/30 06:59:13;;;;;;;55.17;31.50;;;5.80;99.90;;;;;;5014064;28;20064;-72
2022/09/30 07:01:38;;;;;;;55.85;33.65;;;6.00;99.90;;;;;;5011686;28;20022;-72
2022/09/30 07:04:08;;;;;;;57.42;35.40;;;6.10;99.90;;;;;;5012063;28;20030;-73
2022/09/30 07:06:34;;;;;;;62.53;36.97;;;6.20;99.90;;;;;;5008822;28;20026;-73
2022/09/30 07:08:59;;;;;;;63.53;36.33;;;6.30;99.90;;;;;;5006523;28;20056;-73
2022/09/30 07:11:25;;;;;;;62.58;39.80;;;6.50;99.90;;;;;;4995569;28;20048;-74
2022/09/30 07:13:51;;;;;;;65.85;39.47;;;6.60;99.90;;;;;;5010770;28;20445;-75
2022/09/30 07:16:18;;;;;;;69.70;41.97;;;6.70;99.90;;;;;;5008471;28;20026;-74
2022/09/30 07:18:44;;;;;;;70.57;43.22;;;6.90;99.90;;;;;;5012746;28;20026;-74
2022/09/30 07:21:12;;;;;;;70.28;43.75;;;7.00;99.90;;;;;;5017357;28;20455;-74
2022/09/30 07:23:44;;;;;;;71.63;43.95;;;7.20;99.90;;;;;;5008118;28;20439;-74
2022/09/30 07:26:10;;;;;;;69.72;42.33;;;7.30;99.90;;;;;;5000961;28;20030;-74
2022/09/30 07:28:38;;;;;;;69.30;43.28;;;7.40;99.90;;;;;;5005978;28;20038;-74
2022/09/30 07:31:10;;;;;;;67.78;43.08;;;7.60;99.90;;;;;;5001698;28;20394;-74
2022/09/30 07:33:37;;;;;;;;;;;7.70;99.90;;;;;;4999927;28;20430;-73
2022/09/30 07:36:04;;;;;;;65.18;40.30;;;7.80;99.90;;;;;;5006894;28;19992;-74
2022/09/30 07:38:31;;;;;;;67.05;41.20;;;7.90;99.90;;;;;;5005408;28;20033;-74
2022/09/30 07:40:58;;;;;;;65.82;41.50;;;8.00;99.90;;;;;;5004942;28;20498;-73
2022/09/30 07:43:33;;;;;;;67.28;41.67;;;8.20;99.90;;;;;;5008395;28;20030;-74
2022/09/30 07:46:12;;;;;;;61.72;41.72;;;8.30;99.90;;;;;;5013228;28;20119;-74
2022/09/30 07:48:43;;;;;;;65.75;40.85;;;8.40;99.90;;;;;;5013648;28;20030;-74
2022/09/30 07:51:15;;;;;;;59.35;40.83;;;8.50;99.90;;;;;;5011806;28;20034;-74
2022/09/30 07:53:42;;;;;;;60.50;39.30;;;8.70;99.90;;;;;;5004386;28;20062;-74
2022/09/30 07:56:09;;;;;;;53.22;38.25;;;8.80;99.90;;;;;;5009150;28;20026;-74
2022/09/30 07:58:35;;;;;;;56.60;38.58;;;8.90;99.90;;;;;;5008783;28;20034;-74
2022/09/30 08:01:01;;;;;;;57.15;39.55;;;9.00;99.90;;;;;;5006963;28;20080;-74
2022/09/30 08:03:27;;;;;;;55.55;39.38;;;9.10;99.90;;;;;;5008908;28;20033;-74
2022/09/30 08:05:52;;;;;;;57.67;39.20;;;9.20;99.90;;;;;;5003030;28;20022;-74
2022/09/30 08:08:18;;;;;;;52.10;36.88;;;9.30;99.90;;;;;;5010200;28;20032;-75
2022/09/30 08:10:44;;;;;;;50.47;37.38;;;9.40;99.90;;;;;;4993425;28;20095;-74
2022/09/30 08:13:12;;;;;;;53.42;38.15;;;9.50;99.90;;;;;;5005974;28;20049;-75
2022/09/30 08:15:38;;;;;;;49.70;37.33;;;9.60;99.90;;;;;;5004149;28;20096;-75
2022/09/30 08:18:04;;;;;;;51.28;36.15;;;9.70;99.90;;;;;;5006992;28;20087;-75
2022/09/30 08:20:30;;;;;;;48.90;36.38;;;9.80;99.90;;;;;;5005094;28;20030;-75
2022/09/30 08:22:57;;;;;;;52.47;38.22;;;9.90;99.90;;;;;;5006547;28;20030;-75
2022/09/30 08:25:23;;;;;;;49.65;35.83;;;10.00;99.90;;;;;;5009321;28;20021;-76
2022/09/30 08:27:49;;;;;;;51.03;35.78;;;10.20;99.90;;;;;;5006520;28;20088;-76
2022/09/30 08:30:15;;;;;;;46.83;35.80;;;10.30;99.90;;;;;;5003888;28;20030;-75
2022/09/30 08:32:40;;;;;;;44.70;36.05;;;10.40;99.90;;;;;;5005810;28;20092;-74
2022/09/30 08:35:06;;;;;;;50.95;38.38;;;10.50;99.90;;;;;;5004108;28;20024;-74
2022/09/30 08:37:32;;;;;;;50.28;35.42;;;10.60;99.90;;;;;;5006246;28;20049;-74
2022/09/30 08:39:57;;;;;;;51.83;36.60;;;10.70;99.90;;;;;;5004442;28;20218;-74
2022/09/30 08:42:35;;;;;;;48.53;36.25;;;10.80;99.90;;;;;;5001449;28;20436;-75
2022/09/30 08:45:28;;;;;;;45.63;36.08;;;11.00;99.90;;;;;;5007534;28;20046;-74
2022/09/30 08:48:04;;;;;;;47.20;35.10;;;11.10;99.90;;;;;;5006016;28;20030;-74
2022/09/30 08:50:52;;;;;;;48.40;36.60;;;11.30;99.90;;;;;;5007188;28;20052;-75
2022/09/30 08:53:25;;;;;;;40.42;32.58;;;11.40;99.90;;;;;;5007054;28;20038;-75
2022/09/30 08:55:53;;;;;;;41.63;32.67;;;11.50;99.90;;;;;;5003370;28;20053;-75
2022/09/30 08:58:30;;;;;;;41.08;32.67;;;11.70;99.90;;;;;;5006475;28;20035;-75
2022/09/30 09:01:09;;;;;;;38.88;31.77;;;11.80;99.90;;;;;;5004522;28;20236;-75
2022/09/30 09:03:34;;;;;;;39.30;32.28;;;11.90;99.90;;;;;;5007458;28;20026;-75
2022/09/30 09:06:24;;;;;;;36.42;29.67;;;12.00;99.90;;;;;;5004493;28;20041;-77
2022/09/30 09:09:26;;;;;;;33.72;29.20;;;12.10;99.90;;;;;;5007880;28;20381;-75
2022/09/30 09:12:15;;;;;;;32.75;26.90;;;12.20;99.90;;;;;;5004909;28;20030;-75
2022/09/30 09:14:53;;;;;;;35.90;28.33;;;12.30;99.90;;;;;;5004149;28;20025;-75
2022/09/30 09:17:38;;;;;;;32.13;26.85;;;12.50;99.90;;;;;;5007041;28;20437;-75
2022/09/30 09:20:13;;;;;;;32.05;26.42;;;12.60;99.90;;;;;;5009524;28;20022;-75
2022/09/30 09:22:40;;;;;;;33.08;27.58;;;12.60;99.90;;;;;;5006944;28;20025;-75
2022/09/30 09:25:21;;;;;;;32.50;26.90;;;12.70;99.90;;;;;;5008015;28;20097;-75
2022/09/30 09:27:58;;;;;;;29.23;23.85;;;12.90;99.90;;;;;;5009126;28;20036;-75
2022/09/30 09:30:27;;;;;;;26.80;22.75;;;13.00;99.90;;;;;;5005616;28;20044;-75
2022/09/30 09:32:56;;;;;;;26.30;21.65;;;13.00;99.90;;;;;;5002847;28;20119;-75
2022/09/30 09:35:47;;;;;;;28.25;23.00;;;13.10;99.90;;;;;;5006567;28;20022;-75
2022/09/30 09:38:37;;;;;;;25.90;21.27;;;13.30;99.90;;;;;;5005011;28;20037;-75
2022/09/30 09:41:22;;;;;;;21.10;17.13;;;13.40;99.90;;;;;;5001667;28;20029;-75
2022/09/30 09:43:50;;;;;;;20.67;16.88;;;13.50;99.90;;;;;;5003913;28;20128;-75
2022/09/30 09:46:28;;;;;;;18.42;15.20;;;13.50;99.90;;;;;;4999910;28;20057;-74
2022/09/30 09:49:12;;;;;;;16.70;14.07;;;13.60;99.90;;;;;;5015394;28;20075;-74
2022/09/30 09:51:57;;;;;;;16.23;13.48;;;13.70;99.90;;;;;;5017604;28;20078;-73
2022/09/30 09:54:27;;;;;;;16.35;13.10;;;13.80;99.90;;;;;;5015120;28;20033;-74
2022/09/30 09:56:53;;;;;;;15.73;13.93;;;13.80;99.90;;;;;;5006525;28;20040;-74
2022/09/30 09:59:19;;;;;;;15.73;12.07;;;13.90;99.90;;;;;;5010700;28;20025;-73
2022/09/30 10:01:50;;;;;;;18.35;12.45;;;14.00;99.90;;;;;;5011670;28;20034;-74
2022/09/30 10:04:20;;;;;;;12.30;10.73;;;14.10;99.90;;;;;;5007059;28;20065;-74
2022/09/30 10:06:53;;;;;;;12.52;11.13;;;14.20;99.90;;;;;;5013740;28;20426;-74
2022/09/30 10:09:28;;;;;;;12.98;11.68;;;14.20;99.90;;;;;;5006963;28;20092;-74
2022/09/30 10:12:06;;;;;;;15.43;12.40;;;14.30;99.90;;;;;;5014536;28;20402;-73
2022/09/30 10:14:45;;;;;;;14.65;13.00;;;14.30;99.90;;;;;;5004486;28;21089;-74
2022/09/30 10:17:19;;;;;;;13.95;11.30;;;14.40;99.90;;;;;;5009207;28;20022;-73
2022/09/30 10:19:51;;;;;;;12.77;11.40;;;14.40;99.90;;;;;;5012628;28;20022;-74
2022/09/30 10:22:19;;;;;;;12.55;10.65;;;14.50;99.90;;;;;;5012032;28;21390;-74
2022/09/30 10:24:44;;;;;;;14.55;11.18;;;14.60;99.90;;;;;;5010814;28;20033;-74
2022/09/30 10:27:31;;;;;;;13.02;10.75;;;14.60;99.90;;;;;;5011527;28;20034;-74
2022/09/30 10:29:56;;;;;;;12.57;10.15;;;14.70;99.90;;;;;;5012195;28;20054;-74
2022/09/30 10:32:24;;;;;;;13.25;9.63;;;14.80;99.90;;;;;;5013416;28;20534;-74
2022/09/30 10:35:21;;;;;;;11.77;9.48;;;14.90;99.90;;;;;;5014133;28;20391;-73
2022/09/30 10:37:52;;;;;;;10.90;9.30;;;14.90;99.90;;;;;;5013174;28;20049;-73
2022/09/30 10:40:21;;;;;;;11.98;9.80;;;15.00;99.90;;;;;;5011960;28;20486;-74
2022/09/30 10:42:47;;;;;;;14.63;10.80;;;15.00;99.90;;;;;;5005662;28;20030;-74
2022/09/30 10:45:21;;;;;;;12.98;10.50;;;15.00;99.90;;;;;;5007933;28;20045;-74
2022/09/30 10:47:51;;;;;;;15.98;11.38;;;15.10;99.90;;;;;;5008595;28;20030;-74
2022/09/30 10:50:21;;;;;;;14.43;11.65;;;15.20;99.90;;;;;;5017009;28;20030;-74
2022/09/30 10:52:54;;;;;;;16.63;11.77;;;15.30;99.90;;;;;;5017945;28;20052;-74
2022/09/30 10:55:23;;;;;;;17.65;13.02;;;15.30;99.90;;;;;;5005940;28;20030;-73
2022/09/30 10:57:51;;;;;;;15.45;12.60;;;15.30;99.90;;;;;;5011812;28;20017;-73
2022/09/30 11:00:20;;;;;;;15.00;12.18;;;15.30;99.90;;;;;;5014315;28;20044;-73
2022/09/30 11:02:54;;;;;;;16.88;13.23;;;15.30;99.90;;;;;;5014306;28;20077;-74
2022/09/30 11:05:28;;;;;;;15.40;12.55;;;15.30;99.90;;;;;;5015206;28;20517;-73
2022/09/30 11:08:13;;;;;;;14.45;12.55;;;15.40;99.90;;;;;;5017849;28;20079;-73
2022/09/30 11:10:53;;;;;;;15.50;12.23;;;15.50;99.90;;;;;;5016036;28;20026;-74
2022/09/30 11:13:23;;;;;;;15.10;10.70;;;15.50;99.90;;;;;;5012391;28;20034;-73
2022/09/30 11:16:19;;;;;;;14.25;9.70;;;15.60;99.90;;;;;;5009418;28;20105;-73
2022/09/30 11:18:59;;;;;;;13.27;10.38;;;15.70;99.90;;;;;;5019494;28;20478;-73
2022/09/30 11:21:32;;;;;;;10.30;8.48;;;15.80;99.90;;;;;;5026603;28;20079;-74
2022/09/30 11:24:33;;;;;;;8.65;7.50;;;15.70;99.90;;;;;;5021860;28;20390;-74
2022/09/30 11:27:11;;;;;;;8.15;6.38;;;15.80;99.90;;;;;;5016980;28;20033;-73
2022/09/30 11:30:10;;;;;;;10.85;7.78;;;15.80;99.90;;;;;;5009588;28;20075;-74
2022/09/30 11:33:15;;;;;;;9.10;7.15;;;15.90;99.90;;;;;;5009597;28;20041;-73
2022/09/30 11:35:53;;;;;;;8.45;6.63;;;16.10;99.90;;;;;;5011304;28;20029;-74
2022/09/30 11:38:50;;;;;;;5.82;4.07;;;16.20;99.90;;;;;;5016092;28;20101;-74
2022/09/30 11:41:27;;;;;;;6.38;4.47;;;16.40;99.90;;;;;;5009891;28;20027;-73
2022/09/30 11:44:08;;;;;;;5.18;3.95;;;16.50;99.90;;;;;;5008386;28;20120;-73
2022/09/30 11:46:46;;;;;;;5.00;3.25;;;16.60;99.90;;;;;;5010454;28;20125;-73
2022/09/30 11:49:47;;;;;;;4.55;3.20;;;16.60;99.90;;;;;;5013389;28;20033;-73
2022/09/30 11:52:31;;;;;;;7.07;4.05;;;16.40;99.90;;;;;;5005968;28;20520;-74
2022/09/30 11:55:16;;;;;;;5.88;4.45;;;16.30;99.90;;;;;;5009156;28;20034;-74
2022/09/30 11:58:04;;;;;;;6.70;3.85;;;16.10;99.90;;;;;;5005722;28;20373;-74
2022/09/30 12:00:32;;;;;;;4.18;2.15;;;16.10;99.90;;;;;;5010788;28;20563;-73
2022/09/30 12:03:25;;;;;;;2.85;1.40;;;16.20;99.90;;;;;;5012549;28;20033;-74
2022/09/30 12:06:00;;;;;;;3.70;2.30;;;16.20;99.90;;;;;;5002010;28;20029;-74
2022/09/30 12:08:33;;;;;;;4.65;2.60;;;16.10;99.90;;;;;;5012167;28;20030;-74
2022/09/30 12:11:01;;;;;;;3.17;1.48;;;16.20;99.90;;;;;;5013308;28;20038;-74
2022/09/30 12:13:50;;;;;;;2.53;1.40;;;16.20;99.90;;;;;;5013795;28;20038;-74
2022/09/30 12:16:25;;;;;;;2.05;0.82;;;16.20;99.90;;;;;;5004502;28;20434;-74
2022/09/30 12:19:13;;;;;;;1.25;0.70;;;16.30;99.90;;;;;;5010280;28;20049;-74
2022/09/30 12:21:49;;;;;;;2.17;0.68;;;16.40;99.90;;;;;;5010211;28;20130;-75
2022/09/30 12:24:24;;;;;;;1.42;0.70;;;16.50;99.90;;;;;;5005687;28;20390;-74
2022/09/30 12:26:50;;;;;;;3.00;0.90;;;16.60;99.90;;;;;;5008487;28;20029;-74
2022/09/30 12:32:19;;;;;;;;;;;16.90;99.90;;;;;;5012168;28;20045;-74
2022/09/30 12:35:00;;;;;;;2.38;0.73;;;16.90;99.90;;;;;;5011915;28;20415;-74
2022/09/30 12:38:01;;;;;;;1.85;0.82;;;16.90;99.90;;;;;;5012393;28;20605;-74
2022/09/30 12:40:45;;;;;;;2.05;0.85;;;16.90;99.90;;;;;;4992308;28;20046;-74
2022/09/30 12:43:32;;;;;;;2.22;1.10;;;16.80;99.90;;;;;;5006295;28;20028;-74
2022/09/30 12:46:16;;;;;;;2.70;1.00;;;16.80;99.90;;;;;;5007392;28;20491;-74
2022/09/30 12:48:47;;;;;;;2.70;0.80;;;16.90;99.90;;;;;;5008922;28;20060;-74
2022/09/30 12:51:29;;;;;;;2.58;0.88;;;17.10;99.90;;;;;;5007408;28;20030;-74
2022/09/30 12:54:12;;;;;;;1.85;0.70;;;17.20;99.90;;;;;;5006921;28;20620;-74
2022/09/30 12:56:42;;;;;;;1.73;0.73;;;17.40;99.90;;;;;;5013154;28;20036;-74
2022/09/30 12:59:09;;;;;;;2.65;1.00;;;17.60;99.90;;;;;;5011959;28;20068;-74
2022/09/30 13:01:36;;;;;;;2.30;0.80;;;17.70;99.90;;;;;;5014150;28;20164;-74
2022/09/30 13:04:02;;;;;;;3.40;0.80;;;17.80;99.90;;;;;;5011041;28;20030;-74
2022/09/30 13:07:08;;;;;;;2.15;0.57;;;17.90;99.90;;;;;;5004263;28;20470;-74
2022/09/30 13:09:55;;;;;;;1.70;0.60;;;17.90;99.50;;;;;;5012134;28;20033;-74
2022/09/30 13:12:58;;;;;;;2.05;0.45;;;17.90;99.40;;;;;;5000788;28;20096;-74
2022/09/30 13:15:27;;;;;;;2.13;0.70;;;18.00;99.20;;;;;;4981840;28;20387;-74